sensor_id;sensor_type;location;lat;lon;timestamp;P1;durP1;ratioP1;P2;durP2;ratioP2
50092;SDS011;35974;47.752;10.290;2024-02-21T00:00:02;7.10;;;1.63;;
50092;SDS011;35974;47.752;10.290;2024-02-21T00:02:29;4.05;;;1.40;;
50092;SDS011;35974;47.752;10.290;2024-02-21T00:04:56;4.93;;;1.40;;
50092;SDS011;35974;47.752;10.290;2024-02-21T00:07:22;4.05;;;1.70;;
50092;SDS011;35974;47.752;10.290;2024-02-21T00:09:49;6.05;;;1.90;;
50092;SDS011;35974;47.752;10.290;2024-02-21T00:12:16;8.38;;;2.25;;
50092;SDS011;35974;47.752;10.290;2024-02-21T00:14:42;5.70;;;2.20;;
50092;SDS011;35974;47.752;10.290;2024-02-21T00:17:52;4.25;;;1.98;;
50092;SDS011;35974;47.752;10.290;2024-02-21T00:20:43;3.85;;;1.70;;
50092;SDS011;35974;47.752;10.290;2024-02-21T00:23:51;4.18;;;1.98;;
50092;SDS011;35974;47.752;10.290;2024-02-21T00:26:54;6.50;;;1.80;;
50092;SDS011;35974;47.752;10.290;2024-02-21T00:30:25;3.40;;;1.80;;
50092;SDS011;35974;47.752;10.290;2024-02-21T00:33:35;3.90;;;1.70;;
50092;SDS011;35974;47.752;10.290;2024-02-21T00:36:03;6.13;;;2.13;;
50092;SDS011;35974;47.752;10.290;2024-02-21T00:38:34;2.75;;;1.63;;
50092;SDS011;35974;47.752;10.290;2024-02-21T00:41:00;2.97;;;1.70;;
50092;SDS011;35974;47.752;10.290;2024-02-21T00:43:30;4.85;;;1.60;;
50092;SDS011;35974;47.752;10.290;2024-02-21T00:45:57;5.05;;;1.80;;
50092;SDS011;35974;47.752;10.290;2024-02-21T00:48:23;6.47;;;1.80;;
50092;SDS011;35974;47.752;10.290;2024-02-21T00:50:50;5.47;;;1.90;;
50092;SDS011;35974;47.752;10.290;2024-02-21T00:53:18;2.95;;;1.42;;
50092;SDS011;35974;47.752;10.290;2024-02-21T00:55:44;3.20;;;1.52;;
50092;SDS011;35974;47.752;10.290;2024-02-21T00:58:11;6.80;;;1.70;;
50092;SDS011;35974;47.752;10.290;2024-02-21T01:00:38;3.83;;;1.88;;
50092;SDS011;35974;47.752;10.290;2024-02-21T01:03:04;3.85;;;1.60;;
50092;SDS011;35974;47.752;10.290;2024-02-21T01:05:31;5.78;;;1.67;;
50092;SDS011;35974;47.752;10.290;2024-02-21T01:07:59;5.43;;;1.95;;
50092;SDS011;35974;47.752;10.290;2024-02-21T01:10:56;3.33;;;1.60;;
50092;SDS011;35974;47.752;10.290;2024-02-21T01:13:26;4.55;;;1.73;;
50092;SDS011;35974;47.752;10.290;2024-02-21T01:16:40;3.80;;;1.95;;
50092;SDS011;35974;47.752;10.290;2024-02-21T01:19:27;3.22;;;1.60;;
50092;SDS011;35974;47.752;10.290;2024-02-21T01:21:58;3.15;;;1.40;;
50092;SDS011;35974;47.752;10.290;2024-02-21T01:24:41;2.95;;;1.42;;
50092;SDS011;35974;47.752;10.290;2024-02-21T01:27:30;3.67;;;1.35;;
50092;SDS011;35974;47.752;10.290;2024-02-21T01:30:14;4.63;;;1.52;;
50092;SDS011;35974;47.752;10.290;2024-02-21T01:32:44;2.67;;;1.35;;
50092;SDS011;35974;47.752;10.290;2024-02-21T01:36:18;3.28;;;1.48;;
50092;SDS011;35974;47.752;10.290;2024-02-21T01:38:45;3.50;;;1.75;;
50092;SDS011;35974;47.752;10.290;2024-02-21T01:41:12;4.18;;;1.73;;
50092;SDS011;35974;47.752;10.290;2024-02-21T01:43:42;4.68;;;1.80;;
50092;SDS011;35974;47.752;10.290;2024-02-21T01:46:13;4.47;;;1.80;;
50092;SDS011;35974;47.752;10.290;2024-02-21T01:48:40;3.80;;;1.80;;
50092;SDS011;35974;47.752;10.290;2024-02-21T01:51:07;6.18;;;2.10;;
50092;SDS011;35974;47.752;10.290;2024-02-21T01:53:38;3.58;;;2.10;;
50092;SDS011;35974;47.752;10.290;2024-02-21T01:56:09;8.27;;;2.25;;
50092;SDS011;35974;47.752;10.290;2024-02-21T01:58:37;5.32;;;1.55;;
50092;SDS011;35974;47.752;10.290;2024-02-21T02:01:05;3.22;;;2.00;;
50092;SDS011;35974;47.752;10.290;2024-02-21T02:03:32;5.47;;;2.05;;
50092;SDS011;35974;47.752;10.290;2024-02-21T02:06:11;4.25;;;1.92;;
50092;SDS011;35974;47.752;10.290;2024-02-21T02:08:38;3.80;;;2.10;;
50092;SDS011;35974;47.752;10.290;2024-02-21T02:11:05;4.75;;;2.20;;
50092;SDS011;35974;47.752;10.290;2024-02-21T02:13:33;4.97;;;1.92;;
50092;SDS011;35974;47.752;10.290;2024-02-21T02:16:00;3.25;;;1.58;;
50092;SDS011;35974;47.752;10.290;2024-02-21T02:18:26;3.03;;;1.67;;
50092;SDS011;35974;47.752;10.290;2024-02-21T02:20:53;3.17;;;1.77;;
50092;SDS011;35974;47.752;10.290;2024-02-21T02:23:27;5.07;;;2.13;;
50092;SDS011;35974;47.752;10.290;2024-02-21T02:26:00;4.18;;;1.65;;
50092;SDS011;35974;47.752;10.290;2024-02-21T02:28:28;3.35;;;1.73;;
50092;SDS011;35974;47.752;10.290;2024-02-21T02:30:55;2.90;;;1.92;;
50092;SDS011;35974;47.752;10.290;2024-02-21T02:33:21;2.53;;;1.70;;
50092;SDS011;35974;47.752;10.290;2024-02-21T02:35:48;3.05;;;1.73;;
50092;SDS011;35974;47.752;10.290;2024-02-21T02:38:15;5.97;;;2.22;;
50092;SDS011;35974;47.752;10.290;2024-02-21T02:40:44;4.38;;;1.85;;
50092;SDS011;35974;47.752;10.290;2024-02-21T02:43:10;5.82;;;2.30;;
50092;SDS011;35974;47.752;10.290;2024-02-21T02:45:37;5.78;;;1.90;;
50092;SDS011;35974;47.752;10.290;2024-02-21T02:48:04;4.13;;;1.80;;
50092;SDS011;35974;47.752;10.290;2024-02-21T02:50:31;6.78;;;2.25;;
50092;SDS011;35974;47.752;10.290;2024-02-21T02:52:58;4.20;;;1.95;;
50092;SDS011;35974;47.752;10.290;2024-02-21T02:55:25;4.28;;;2.10;;
50092;SDS011;35974;47.752;10.290;2024-02-21T02:57:53;4.55;;;2.00;;
50092;SDS011;35974;47.752;10.290;2024-02-21T03:00:19;3.63;;;2.03;;
50092;SDS011;35974;47.752;10.290;2024-02-21T03:02:46;4.63;;;2.10;;
50092;SDS011;35974;47.752;10.290;2024-02-21T03:05:16;3.65;;;1.98;;
50092;SDS011;35974;47.752;10.290;2024-02-21T03:07:44;4.32;;;1.55;;
50092;SDS011;35974;47.752;10.290;2024-02-21T03:10:11;3.58;;;1.80;;
50092;SDS011;35974;47.752;10.290;2024-02-21T03:12:39;3.25;;;1.77;;
50092;SDS011;35974;47.752;10.290;2024-02-21T03:15:06;5.65;;;2.33;;
50092;SDS011;35974;47.752;10.290;2024-02-21T03:17:40;5.10;;;2.53;;
50092;SDS011;35974;47.752;10.290;2024-02-21T03:20:08;9.25;;;2.40;;
50092;SDS011;35974;47.752;10.290;2024-02-21T03:22:38;5.00;;;2.30;;
50092;SDS011;35974;47.752;10.290;2024-02-21T03:25:14;4.25;;;2.17;;
50092;SDS011;35974;47.752;10.290;2024-02-21T03:27:41;5.72;;;1.98;;
50092;SDS011;35974;47.752;10.290;2024-02-21T03:30:08;6.88;;;2.00;;
50092;SDS011;35974;47.752;10.290;2024-02-21T03:32:35;5.20;;;1.67;;
50092;SDS011;35974;47.752;10.290;2024-02-21T03:35:02;4.40;;;2.00;;
50092;SDS011;35974;47.752;10.290;2024-02-21T03:37:40;4.25;;;2.10;;
50092;SDS011;35974;47.752;10.290;2024-02-21T03:40:08;4.53;;;1.70;;
50092;SDS011;35974;47.752;10.290;2024-02-21T03:42:35;4.65;;;2.38;;
50092;SDS011;35974;47.752;10.290;2024-02-21T03:45:01;5.15;;;2.13;;
50092;SDS011;35974;47.752;10.290;2024-02-21T03:47:31;2.30;;;1.70;;
50092;SDS011;35974;47.752;10.290;2024-02-21T03:49:58;4.95;;;2.20;;
50092;SDS011;35974;47.752;10.290;2024-02-21T03:52:28;4.28;;;1.88;;
50092;SDS011;35974;47.752;10.290;2024-02-21T03:54:55;4.55;;;1.73;;
50092;SDS011;35974;47.752;10.290;2024-02-21T03:57:23;2.75;;;1.75;;
50092;SDS011;35974;47.752;10.290;2024-02-21T03:59:50;3.13;;;1.60;;
50092;SDS011;35974;47.752;10.290;2024-02-21T04:02:18;6.90;;;2.17;;
50092;SDS011;35974;47.752;10.290;2024-02-21T04:04:45;3.33;;;1.70;;
50092;SDS011;35974;47.752;10.290;2024-02-21T04:07:13;5.90;;;1.83;;
50092;SDS011;35974;47.752;10.290;2024-02-21T04:09:41;3.38;;;1.85;;
50092;SDS011;35974;47.752;10.290;2024-02-21T04:12:08;3.83;;;1.65;;
50092;SDS011;35974;47.752;10.290;2024-02-21T04:14:35;7.07;;;1.70;;
50092;SDS011;35974;47.752;10.290;2024-02-21T04:17:02;4.95;;;1.95;;
50092;SDS011;35974;47.752;10.290;2024-02-21T04:19:33;3.03;;;1.63;;
50092;SDS011;35974;47.752;10.290;2024-02-21T04:22:11;6.60;;;1.88;;
50092;SDS011;35974;47.752;10.290;2024-02-21T04:24:45;4.15;;;1.50;;
50092;SDS011;35974;47.752;10.290;2024-02-21T04:27:12;3.10;;;1.92;;
50092;SDS011;35974;47.752;10.290;2024-02-21T04:29:38;3.83;;;1.90;;
50092;SDS011;35974;47.752;10.290;2024-02-21T04:34:59;3.13;;;1.52;;
50092;SDS011;35974;47.752;10.290;2024-02-21T04:40:08;6.40;;;2.65;;
50092;SDS011;35974;47.752;10.290;2024-02-21T04:42:35;4.57;;;2.10;;
50092;SDS011;35974;47.752;10.290;2024-02-21T04:45:02;6.47;;;3.13;;
50092;SDS011;35974;47.752;10.290;2024-02-21T04:47:28;5.03;;;2.95;;
50092;SDS011;35974;47.752;10.290;2024-02-21T04:52:44;6.78;;;2.72;;
50092;SDS011;35974;47.752;10.290;2024-02-21T04:58:01;4.90;;;2.67;;
50092;SDS011;35974;47.752;10.290;2024-02-21T05:00:28;5.53;;;2.47;;
50092;SDS011;35974;47.752;10.290;2024-02-21T05:02:55;5.35;;;2.40;;
50092;SDS011;35974;47.752;10.290;2024-02-21T05:05:21;6.53;;;2.40;;
50092;SDS011;35974;47.752;10.290;2024-02-21T05:07:48;4.93;;;2.53;;
50092;SDS011;35974;47.752;10.290;2024-02-21T05:10:32;8.80;;;2.47;;
50092;SDS011;35974;47.752;10.290;2024-02-21T05:12:58;7.97;;;2.53;;
50092;SDS011;35974;47.752;10.290;2024-02-21T05:15:25;8.18;;;3.00;;
50092;SDS011;35974;47.752;10.290;2024-02-21T05:17:54;6.65;;;2.10;;
50092;SDS011;35974;47.752;10.290;2024-02-21T05:22:51;4.25;;;2.20;;
50092;SDS011;35974;47.752;10.290;2024-02-21T05:25:31;7.22;;;2.40;;
50092;SDS011;35974;47.752;10.290;2024-02-21T05:27:58;6.35;;;2.55;;
50092;SDS011;35974;47.752;10.290;2024-02-21T05:30:28;7.22;;;2.08;;
50092;SDS011;35974;47.752;10.290;2024-02-21T05:32:55;5.45;;;1.73;;
50092;SDS011;35974;47.752;10.290;2024-02-21T05:35:25;3.10;;;1.70;;
50092;SDS011;35974;47.752;10.290;2024-02-21T05:37:55;5.80;;;2.10;;
50092;SDS011;35974;47.752;10.290;2024-02-21T05:40:21;7.15;;;1.75;;
50092;SDS011;35974;47.752;10.290;2024-02-21T05:42:54;2.75;;;1.77;;
50092;SDS011;35974;47.752;10.290;2024-02-21T05:45:21;3.92;;;1.65;;
50092;SDS011;35974;47.752;10.290;2024-02-21T05:47:47;4.07;;;1.80;;
50092;SDS011;35974;47.752;10.290;2024-02-21T05:50:14;4.75;;;1.70;;
50092;SDS011;35974;47.752;10.290;2024-02-21T05:52:40;4.63;;;1.70;;
50092;SDS011;35974;47.752;10.290;2024-02-21T05:55:07;6.03;;;2.40;;
50092;SDS011;35974;47.752;10.290;2024-02-21T05:57:35;7.80;;;2.72;;
50092;SDS011;35974;47.752;10.290;2024-02-21T06:00:05;6.95;;;2.38;;
50092;SDS011;35974;47.752;10.290;2024-02-21T06:02:32;6.05;;;1.80;;
50092;SDS011;35974;47.752;10.290;2024-02-21T06:04:59;4.18;;;1.70;;
50092;SDS011;35974;47.752;10.290;2024-02-21T06:07:26;7.03;;;1.92;;
50092;SDS011;35974;47.752;10.290;2024-02-21T06:09:57;3.47;;;1.70;;
50092;SDS011;35974;47.752;10.290;2024-02-21T06:12:23;2.55;;;1.75;;
50092;SDS011;35974;47.752;10.290;2024-02-21T06:14:50;3.33;;;1.70;;
50092;SDS011;35974;47.752;10.290;2024-02-21T06:17:16;3.85;;;1.85;;
50092;SDS011;35974;47.752;10.290;2024-02-21T06:19:43;5.60;;;1.60;;
50092;SDS011;35974;47.752;10.290;2024-02-21T06:22:18;4.57;;;1.40;;
50092;SDS011;35974;47.752;10.290;2024-02-21T06:24:44;3.00;;;1.52;;
50092;SDS011;35974;47.752;10.290;2024-02-21T06:27:11;5.30;;;1.40;;
50092;SDS011;35974;47.752;10.290;2024-02-21T06:29:45;3.58;;;1.80;;
50092;SDS011;35974;47.752;10.290;2024-02-21T06:32:11;3.97;;;1.73;;
50092;SDS011;35974;47.752;10.290;2024-02-21T06:34:41;3.08;;;1.65;;
50092;SDS011;35974;47.752;10.290;2024-02-21T06:37:15;16.90;;;2.30;;
50092;SDS011;35974;47.752;10.290;2024-02-21T06:39:42;11.90;;;2.33;;
50092;SDS011;35974;47.752;10.290;2024-02-21T06:42:16;8.48;;;1.95;;
50092;SDS011;35974;47.752;10.290;2024-02-21T06:44:44;4.43;;;1.80;;
50092;SDS011;35974;47.752;10.290;2024-02-21T06:47:25;3.22;;;1.60;;
50092;SDS011;35974;47.752;10.290;2024-02-21T06:52:39;8.88;;;2.63;;
50092;SDS011;35974;47.752;10.290;2024-02-21T06:55:06;5.55;;;2.38;;
50092;SDS011;35974;47.752;10.290;2024-02-21T06:57:33;18.23;;;2.80;;
50092;SDS011;35974;47.752;10.290;2024-02-21T06:59:59;4.88;;;2.03;;
50092;SDS011;35974;47.752;10.290;2024-02-21T07:02:26;7.80;;;2.03;;
50092;SDS011;35974;47.752;10.290;2024-02-21T07:04:52;8.07;;;1.77;;
50092;SDS011;35974;47.752;10.290;2024-02-21T07:07:19;6.88;;;2.15;;
50092;SDS011;35974;47.752;10.290;2024-02-21T07:09:45;5.88;;;1.63;;
50092;SDS011;35974;47.752;10.290;2024-02-21T07:12:14;9.73;;;2.00;;
50092;SDS011;35974;47.752;10.290;2024-02-21T07:14:51;5.15;;;2.00;;
50092;SDS011;35974;47.752;10.290;2024-02-21T07:17:18;4.80;;;2.00;;
50092;SDS011;35974;47.752;10.290;2024-02-21T07:19:44;3.70;;;1.88;;
50092;SDS011;35974;47.752;10.290;2024-02-21T07:22:11;5.68;;;1.70;;
50092;SDS011;35974;47.752;10.290;2024-02-21T07:24:37;9.00;;;2.13;;
50092;SDS011;35974;47.752;10.290;2024-02-21T07:27:04;3.58;;;1.90;;
50092;SDS011;35974;47.752;10.290;2024-02-21T07:29:31;5.15;;;1.70;;
50092;SDS011;35974;47.752;10.290;2024-02-21T07:31:57;9.48;;;2.10;;
50092;SDS011;35974;47.752;10.290;2024-02-21T07:34:24;3.25;;;1.20;;
50092;SDS011;35974;47.752;10.290;2024-02-21T07:36:51;1.98;;;1.02;;
50092;SDS011;35974;47.752;10.290;2024-02-21T07:39:17;6.70;;;1.42;;
50092;SDS011;35974;47.752;10.290;2024-02-21T07:41:46;1.98;;;1.30;;
50092;SDS011;35974;47.752;10.290;2024-02-21T07:46:45;4.15;;;1.17;;
50092;SDS011;35974;47.752;10.290;2024-02-21T07:49:24;7.25;;;0.90;;
50092;SDS011;35974;47.752;10.290;2024-02-21T07:51:51;3.70;;;1.25;;
50092;SDS011;35974;47.752;10.290;2024-02-21T07:54:19;6.93;;;1.10;;
50092;SDS011;35974;47.752;10.290;2024-02-21T07:56:48;2.92;;;0.70;;
50092;SDS011;35974;47.752;10.290;2024-02-21T07:59:15;30.30;;;2.78;;
50092;SDS011;35974;47.752;10.290;2024-02-21T08:01:42;4.10;;;0.95;;
50092;SDS011;35974;47.752;10.290;2024-02-21T08:04:21;7.88;;;2.65;;
50092;SDS011;35974;47.752;10.290;2024-02-21T08:06:51;3.80;;;1.70;;
50092;SDS011;35974;47.752;10.290;2024-02-21T08:09:19;3.75;;;1.20;;
50092;SDS011;35974;47.752;10.290;2024-02-21T08:11:46;2.67;;;1.10;;
50092;SDS011;35974;47.752;10.290;2024-02-21T08:14:12;9.13;;;1.00;;
50092;SDS011;35974;47.752;10.290;2024-02-21T08:16:45;2.55;;;0.85;;
50092;SDS011;35974;47.752;10.290;2024-02-21T08:19:12;2.42;;;0.77;;
50092;SDS011;35974;47.752;10.290;2024-02-21T08:21:47;1.67;;;0.70;;
50092;SDS011;35974;47.752;10.290;2024-02-21T08:24:13;1.75;;;0.80;;
50092;SDS011;35974;47.752;10.290;2024-02-21T08:26:44;8.75;;;1.30;;
50092;SDS011;35974;47.752;10.290;2024-02-21T08:29:13;3.30;;;1.05;;
50092;SDS011;35974;47.752;10.290;2024-02-21T08:31:40;5.13;;;1.60;;
50092;SDS011;35974;47.752;10.290;2024-02-21T08:34:06;2.70;;;0.95;;
50092;SDS011;35974;47.752;10.290;2024-02-21T08:36:33;4.07;;;0.98;;
50092;SDS011;35974;47.752;10.290;2024-02-21T08:39:01;5.50;;;0.80;;
50092;SDS011;35974;47.752;10.290;2024-02-21T08:41:31;33.95;;;2.20;;
50092;SDS011;35974;47.752;10.290;2024-02-21T08:44:17;9.05;;;2.00;;
50092;SDS011;35974;47.752;10.290;2024-02-21T08:46:43;4.10;;;0.82;;
50092;SDS011;35974;47.752;10.290;2024-02-21T08:49:10;2.85;;;0.80;;
50092;SDS011;35974;47.752;10.290;2024-02-21T08:51:37;3.13;;;1.23;;
50092;SDS011;35974;47.752;10.290;2024-02-21T08:54:03;5.18;;;0.80;;
50092;SDS011;35974;47.752;10.290;2024-02-21T08:56:30;3.85;;;0.77;;
50092;SDS011;35974;47.752;10.290;2024-02-21T08:58:57;5.78;;;0.70;;
50092;SDS011;35974;47.752;10.290;2024-02-21T09:01:31;1.20;;;0.80;;
50092;SDS011;35974;47.752;10.290;2024-02-21T09:03:59;1.45;;;0.75;;
50092;SDS011;35974;47.752;10.290;2024-02-21T09:06:26;3.72;;;0.70;;
50092;SDS011;35974;47.752;10.290;2024-02-21T09:08:56;5.03;;;0.88;;
50092;SDS011;35974;47.752;10.290;2024-02-21T09:11:24;1.52;;;0.70;;
50092;SDS011;35974;47.752;10.290;2024-02-21T09:13:50;1.90;;;0.60;;
50092;SDS011;35974;47.752;10.290;2024-02-21T09:16:17;2.05;;;0.85;;
50092;SDS011;35974;47.752;10.290;2024-02-21T09:21:24;2.70;;;0.90;;
50092;SDS011;35974;47.752;10.290;2024-02-21T09:23:51;2.22;;;0.95;;
50092;SDS011;35974;47.752;10.290;2024-02-21T09:26:22;1.73;;;0.90;;
50092;SDS011;35974;47.752;10.290;2024-02-21T09:28:48;1.00;;;0.70;;
50092;SDS011;35974;47.752;10.290;2024-02-21T09:31:15;2.10;;;1.00;;
50092;SDS011;35974;47.752;10.290;2024-02-21T09:33:41;2.30;;;0.82;;
50092;SDS011;35974;47.752;10.290;2024-02-21T09:36:08;6.45;;;1.05;;
50092;SDS011;35974;47.752;10.290;2024-02-21T09:38:34;1.95;;;1.00;;
50092;SDS011;35974;47.752;10.290;2024-02-21T09:41:04;2.20;;;1.13;;
50092;SDS011;35974;47.752;10.290;2024-02-21T09:43:40;1.48;;;1.00;;
50092;SDS011;35974;47.752;10.290;2024-02-21T09:51:24;4.32;;;1.02;;
50092;SDS011;35974;47.752;10.290;2024-02-21T09:53:55;1.90;;;1.00;;
50092;SDS011;35974;47.752;10.290;2024-02-21T09:56:36;1.55;;;1.00;;
50092;SDS011;35974;47.752;10.290;2024-02-21T09:59:03;2.95;;;0.90;;
50092;SDS011;35974;47.752;10.290;2024-02-21T10:01:37;2.20;;;0.60;;
50092;SDS011;35974;47.752;10.290;2024-02-21T10:04:03;2.03;;;0.80;;
50092;SDS011;35974;47.752;10.290;2024-02-21T10:06:31;1.38;;;0.77;;
50092;SDS011;35974;47.752;10.290;2024-02-21T10:08:58;2.15;;;0.77;;
50092;SDS011;35974;47.752;10.290;2024-02-21T10:11:25;2.97;;;0.82;;
50092;SDS011;35974;47.752;10.290;2024-02-21T10:14:05;1.50;;;0.60;;
50092;SDS011;35974;47.752;10.290;2024-02-21T10:16:35;0.70;;;0.55;;
50092;SDS011;35974;47.752;10.290;2024-02-21T10:19:03;1.23;;;0.70;;
50092;SDS011;35974;47.752;10.290;2024-02-21T10:21:30;1.73;;;0.70;;
50092;SDS011;35974;47.752;10.290;2024-02-21T10:23:57;4.30;;;0.93;;
50092;SDS011;35974;47.752;10.290;2024-02-21T10:29:04;1.80;;;0.75;;
50092;SDS011;35974;47.752;10.290;2024-02-21T10:31:31;2.35;;;0.63;;
50092;SDS011;35974;47.752;10.290;2024-02-21T10:33:58;2.65;;;0.98;;
50092;SDS011;35974;47.752;10.290;2024-02-21T10:36:32;0.85;;;0.55;;
50092;SDS011;35974;47.752;10.290;2024-02-21T10:38:59;1.65;;;0.90;;
50092;SDS011;35974;47.752;10.290;2024-02-21T10:41:25;2.97;;;0.70;;
50092;SDS011;35974;47.752;10.290;2024-02-21T10:43:54;2.33;;;0.88;;
50092;SDS011;35974;47.752;10.290;2024-02-21T10:46:22;1.88;;;0.70;;
50092;SDS011;35974;47.752;10.290;2024-02-21T10:51:33;1.30;;;0.75;;
50092;SDS011;35974;47.752;10.290;2024-02-21T10:57:16;1.25;;;0.63;;
50092;SDS011;35974;47.752;10.290;2024-02-21T10:59:44;2.17;;;0.80;;
50092;SDS011;35974;47.752;10.290;2024-02-21T11:02:11;7.78;;;1.77;;
50092;SDS011;35974;47.752;10.290;2024-02-21T11:04:38;1.75;;;0.85;;
50092;SDS011;35974;47.752;10.290;2024-02-21T11:07:06;9.13;;;1.10;;
50092;SDS011;35974;47.752;10.290;2024-02-21T11:09:36;1.75;;;0.70;;
50092;SDS011;35974;47.752;10.290;2024-02-21T11:12:04;2.17;;;1.00;;
50092;SDS011;35974;47.752;10.290;2024-02-21T11:14:32;1.90;;;0.70;;
50092;SDS011;35974;47.752;10.290;2024-02-21T11:16:59;1.00;;;0.60;;
50092;SDS011;35974;47.752;10.290;2024-02-21T11:19:27;1.30;;;0.63;;
50092;SDS011;35974;47.752;10.290;2024-02-21T11:21:55;1.25;;;0.70;;
50092;SDS011;35974;47.752;10.290;2024-02-21T11:24:30;13.88;;;1.55;;
50092;SDS011;35974;47.752;10.290;2024-02-21T11:29:48;3.28;;;0.88;;
50092;SDS011;35974;47.752;10.290;2024-02-21T11:32:18;2.42;;;1.08;;
50092;SDS011;35974;47.752;10.290;2024-02-21T11:34:58;7.63;;;0.73;;
50092;SDS011;35974;47.752;10.290;2024-02-21T11:37:32;1.65;;;0.75;;
50092;SDS011;35974;47.752;10.290;2024-02-21T11:40:00;1.25;;;0.63;;
50092;SDS011;35974;47.752;10.290;2024-02-21T11:42:27;2.67;;;0.68;;
50092;SDS011;35974;47.752;10.290;2024-02-21T11:45:06;1.92;;;0.80;;
50092;SDS011;35974;47.752;10.290;2024-02-21T11:47:33;2.03;;;0.63;;
50092;SDS011;35974;47.752;10.290;2024-02-21T11:50:00;2.78;;;0.60;;
50092;SDS011;35974;47.752;10.290;2024-02-21T11:52:27;1.40;;;0.52;;
50092;SDS011;35974;47.752;10.290;2024-02-21T11:54:55;3.30;;;0.77;;
50092;SDS011;35974;47.752;10.290;2024-02-21T11:57:30;1.65;;;0.77;;
50092;SDS011;35974;47.752;10.290;2024-02-21T11:59:57;4.10;;;0.80;;
50092;SDS011;35974;47.752;10.290;2024-02-21T12:02:27;3.22;;;0.75;;
50092;SDS011;35974;47.752;10.290;2024-02-21T12:04:57;1.40;;;0.80;;
50092;SDS011;35974;47.752;10.290;2024-02-21T12:07:24;2.50;;;0.70;;
50092;SDS011;35974;47.752;10.290;2024-02-21T12:09:51;1.33;;;0.80;;
50092;SDS011;35974;47.752;10.290;2024-02-21T12:12:19;2.55;;;0.77;;
50092;SDS011;35974;47.752;10.290;2024-02-21T12:14:46;2.53;;;0.80;;
50092;SDS011;35974;47.752;10.290;2024-02-21T12:17:13;3.25;;;0.90;;
50092;SDS011;35974;47.752;10.290;2024-02-21T12:19:39;2.28;;;0.82;;
50092;SDS011;35974;47.752;10.290;2024-02-21T12:22:06;5.88;;;2.65;;
50092;SDS011;35974;47.752;10.290;2024-02-21T12:24:43;1.27;;;0.55;;
50092;SDS011;35974;47.752;10.290;2024-02-21T12:27:13;0.98;;;0.70;;
50092;SDS011;35974;47.752;10.290;2024-02-21T12:29:42;2.13;;;1.20;;
50092;SDS011;35974;47.752;10.290;2024-02-21T12:32:08;1.80;;;0.75;;
50092;SDS011;35974;47.752;10.290;2024-02-21T12:34:35;2.08;;;0.70;;
50092;SDS011;35974;47.752;10.290;2024-02-21T12:37:18;4.00;;;0.77;;
50092;SDS011;35974;47.752;10.290;2024-02-21T12:39:47;2.47;;;0.60;;
50092;SDS011;35974;47.752;10.290;2024-02-21T12:42:13;1.88;;;0.70;;
50092;SDS011;35974;47.752;10.290;2024-02-21T12:44:40;4.72;;;0.85;;
50092;SDS011;35974;47.752;10.290;2024-02-21T12:47:11;1.33;;;0.40;;
50092;SDS011;35974;47.752;10.290;2024-02-21T12:49:38;0.95;;;0.30;;
50092;SDS011;35974;47.752;10.290;2024-02-21T12:52:10;2.60;;;0.45;;
50092;SDS011;35974;47.752;10.290;2024-02-21T12:54:39;2.30;;;0.47;;
50092;SDS011;35974;47.752;10.290;2024-02-21T12:57:05;0.95;;;0.40;;
50092;SDS011;35974;47.752;10.290;2024-02-21T12:59:32;0.73;;;0.43;;
50092;SDS011;35974;47.752;10.290;2024-02-21T13:01:58;2.67;;;0.45;;
50092;SDS011;35974;47.752;10.290;2024-02-21T13:04:25;2.85;;;0.50;;
50092;SDS011;35974;47.752;10.290;2024-02-21T13:06:54;1.25;;;0.50;;
50092;SDS011;35974;47.752;10.290;2024-02-21T13:09:22;1.08;;;0.55;;
50092;SDS011;35974;47.752;10.290;2024-02-21T13:11:48;1.33;;;0.40;;
50092;SDS011;35974;47.752;10.290;2024-02-21T13:14:18;1.73;;;0.57;;
50092;SDS011;35974;47.752;10.290;2024-02-21T13:16:45;2.45;;;0.50;;
50092;SDS011;35974;47.752;10.290;2024-02-21T13:19:12;2.95;;;0.60;;
50092;SDS011;35974;47.752;10.290;2024-02-21T13:21:44;1.17;;;0.52;;
50092;SDS011;35974;47.752;10.290;2024-02-21T13:26:41;0.75;;;0.55;;
50092;SDS011;35974;47.752;10.290;2024-02-21T13:29:09;1.25;;;0.40;;
50092;SDS011;35974;47.752;10.290;2024-02-21T13:31:36;5.82;;;0.57;;
50092;SDS011;35974;47.752;10.290;2024-02-21T13:34:03;1.88;;;0.30;;
50092;SDS011;35974;47.752;10.290;2024-02-21T13:36:29;0.65;;;0.30;;
50092;SDS011;35974;47.752;10.290;2024-02-21T13:41:25;0.63;;;0.38;;
50092;SDS011;35974;47.752;10.290;2024-02-21T13:43:52;4.03;;;0.60;;
50092;SDS011;35974;47.752;10.290;2024-02-21T13:46:19;0.70;;;0.50;;
50092;SDS011;35974;47.752;10.290;2024-02-21T13:48:47;0.70;;;0.40;;
50092;SDS011;35974;47.752;10.290;2024-02-21T13:51:14;0.73;;;0.40;;
50092;SDS011;35974;47.752;10.290;2024-02-21T13:53:42;3.20;;;0.50;;
50092;SDS011;35974;47.752;10.290;2024-02-21T13:56:09;0.45;;;0.40;;
50092;SDS011;35974;47.752;10.290;2024-02-21T13:58:39;1.30;;;0.60;;
50092;SDS011;35974;47.752;10.290;2024-02-21T14:01:05;2.05;;;0.43;;
50092;SDS011;35974;47.752;10.290;2024-02-21T14:03:32;3.47;;;0.47;;
50092;SDS011;35974;47.752;10.290;2024-02-21T14:05:59;1.10;;;0.43;;
50092;SDS011;35974;47.752;10.290;2024-02-21T14:08:26;2.25;;;0.57;;
50092;SDS011;35974;47.752;10.290;2024-02-21T14:10:52;0.70;;;0.45;;
50092;SDS011;35974;47.752;10.290;2024-02-21T14:13:19;1.40;;;0.50;;
50092;SDS011;35974;47.752;10.290;2024-02-21T14:15:45;0.63;;;0.30;;
50092;SDS011;35974;47.752;10.290;2024-02-21T14:18:13;2.15;;;0.52;;
50092;SDS011;35974;47.752;10.290;2024-02-21T14:20:40;2.92;;;0.40;;
50092;SDS011;35974;47.752;10.290;2024-02-21T14:23:07;1.48;;;0.70;;
50092;SDS011;35974;47.752;10.290;2024-02-21T14:25:33;1.35;;;0.50;;
50092;SDS011;35974;47.752;10.290;2024-02-21T14:28:00;1.08;;;0.55;;
50092;SDS011;35974;47.752;10.290;2024-02-21T14:30:27;1.88;;;0.32;;
50092;SDS011;35974;47.752;10.290;2024-02-21T14:32:53;0.80;;;0.50;;
50092;SDS011;35974;47.752;10.290;2024-02-21T14:35:20;0.75;;;0.40;;
50092;SDS011;35974;47.752;10.290;2024-02-21T14:37:47;2.92;;;0.47;;
50092;SDS011;35974;47.752;10.290;2024-02-21T14:40:15;0.63;;;0.40;;
50092;SDS011;35974;47.752;10.290;2024-02-21T14:42:43;0.90;;;0.35;;
50092;SDS011;35974;47.752;10.290;2024-02-21T14:45:10;1.25;;;0.60;;
50092;SDS011;35974;47.752;10.290;2024-02-21T14:47:38;1.88;;;0.45;;
50092;SDS011;35974;47.752;10.290;2024-02-21T14:50:05;1.17;;;0.50;;
50092;SDS011;35974;47.752;10.290;2024-02-21T14:52:34;4.68;;;0.63;;
50092;SDS011;35974;47.752;10.290;2024-02-21T14:55:02;1.70;;;0.40;;
50092;SDS011;35974;47.752;10.290;2024-02-21T14:57:29;1.10;;;0.35;;
50092;SDS011;35974;47.752;10.290;2024-02-21T14:59:55;1.83;;;0.50;;
50092;SDS011;35974;47.752;10.290;2024-02-21T15:02:25;1.65;;;0.50;;
50092;SDS011;35974;47.752;10.290;2024-02-21T15:04:54;1.65;;;0.30;;
50092;SDS011;35974;47.752;10.290;2024-02-21T15:07:21;1.00;;;0.57;;
50092;SDS011;35974;47.752;10.290;2024-02-21T15:09:50;6.47;;;0.70;;
50092;SDS011;35974;47.752;10.290;2024-02-21T15:12:17;12.50;;;1.17;;
50092;SDS011;35974;47.752;10.290;2024-02-21T15:14:44;11.77;;;1.10;;
50092;SDS011;35974;47.752;10.290;2024-02-21T15:17:11;2.63;;;0.65;;
50092;SDS011;35974;47.752;10.290;2024-02-21T15:19:38;16.83;;;1.73;;
50092;SDS011;35974;47.752;10.290;2024-02-21T15:22:10;25.70;;;1.40;;
50092;SDS011;35974;47.752;10.290;2024-02-21T15:24:40;1.85;;;0.40;;
50092;SDS011;35974;47.752;10.290;2024-02-21T15:27:07;10.05;;;1.20;;
50092;SDS011;35974;47.752;10.290;2024-02-21T15:29:34;1.05;;;0.40;;